createdAt,value
2022-11-05T00:00:18.716Z,0.40
2022-11-05T00:03:04.139Z,0.40
2022-11-05T00:05:50.873Z,0.20
2022-11-05T00:08:36.215Z,0.10
2022-11-05T00:11:03.077Z,0.10
2022-11-05T00:13:48.473Z,0.10
2022-11-05T00:16:33.840Z,0.10
2022-11-05T00:19:06.705Z,0.50
2022-11-05T00:21:52.999Z,0.20
2022-11-05T00:24:38.511Z,0.17
2022-11-05T00:27:05.466Z,0.57
2022-11-05T00:29:32.393Z,0.35
2022-11-05T00:31:59.293Z,0.10
2022-11-05T00:34:26.201Z,0.10
2022-11-05T00:36:53.218Z,0.10
2022-11-05T00:39:20.043Z,0.20
2022-11-05T00:42:06.904Z,0.10
2022-11-05T00:44:52.525Z,1.30
2022-11-05T00:47:37.895Z,0.40
2022-11-05T00:50:05.181Z,0.10
2022-11-05T00:52:50.460Z,0.55
2022-11-05T00:55:17.291Z,0.20
2022-11-05T00:57:44.175Z,0.40
2022-11-05T01:00:11.963Z,0.10
2022-11-05T01:02:38.915Z,0.10
2022-11-05T01:05:06.295Z,0.10
2022-11-05T01:07:33.348Z,0.60
2022-11-05T01:10:00.303Z,0.43
2022-11-05T01:12:27.254Z,0.10
2022-11-05T01:14:54.156Z,0.20
2022-11-05T01:17:21.017Z,0.20
2022-11-05T01:19:47.932Z,0.10
2022-11-05T01:22:14.914Z,0.20
2022-11-05T01:24:41.776Z,0.28
2022-11-05T01:27:08.699Z,0.10
2022-11-05T01:29:35.606Z,0.13
2022-11-05T01:32:02.454Z,0.10
2022-11-05T01:34:29.403Z,0.25
2022-11-05T01:36:56.264Z,0.10
2022-11-05T01:39:23.053Z,0.20
2022-11-05T01:41:50.004Z,0.55
2022-11-05T01:44:54.213Z,0.10
2022-11-05T01:47:53.439Z,0.10
2022-11-05T01:50:23.282Z,0.10
2022-11-05T01:52:54.264Z,0.10
2022-11-05T01:55:25.932Z,0.10
2022-11-05T01:57:56.470Z,0.30
2022-11-05T02:00:23.364Z,0.10
2022-11-05T02:02:50.684Z,0.10
2022-11-05T02:05:17.936Z,1.23
2022-11-05T02:07:46.683Z,0.30
2022-11-05T02:10:18.138Z,0.13
2022-11-05T02:12:47.398Z,0.30
2022-11-05T02:15:17.593Z,0.10
2022-11-05T02:18:03.207Z,0.20
2022-11-05T02:20:30.110Z,0.50
2022-11-05T02:23:23.917Z,0.10
2022-11-05T02:26:02.576Z,0.30
2022-11-05T02:28:29.386Z,0.20
2022-11-05T02:31:24.512Z,0.10
2022-11-05T02:34:17.912Z,0.10
2022-11-05T02:37:14.535Z,0.10
2022-11-05T02:40:02.892Z,0.10
2022-11-05T02:42:35.863Z,0.10
2022-11-05T02:45:33.017Z,0.10
2022-11-05T02:48:14.897Z,0.10
2022-11-05T02:51:18.381Z,0.10
2022-11-05T02:53:58.739Z,0.32
2022-11-05T02:56:35.716Z,0.10
2022-11-05T02:59:02.613Z,0.20
2022-11-05T03:01:29.524Z,0.40
2022-11-05T03:04:04.615Z,0.10
2022-11-05T03:06:46.485Z,0.13
2022-11-05T03:09:40.751Z,0.13
2022-11-05T03:12:26.097Z,0.10
2022-11-05T03:15:03.060Z,0.20
2022-11-05T03:17:42.339Z,0.10
2022-11-05T03:20:23.979Z,0.10
2022-11-05T03:23:05.376Z,0.10
2022-11-05T03:25:36.354Z,0.20
2022-11-05T03:28:07.403Z,0.38
2022-11-05T03:30:36.690Z,0.10
2022-11-05T03:33:12.964Z,0.30
2022-11-05T03:35:45.282Z,0.20
2022-11-05T03:38:22.891Z,0.10
2022-11-05T03:40:54.187Z,0.13
2022-11-05T03:43:24.787Z,0.10
2022-11-05T03:46:01.437Z,0.10
2022-11-05T03:48:31.546Z,0.10
2022-11-05T03:51:22.895Z,0.20
2022-11-05T03:53:56.113Z,0.10
2022-11-05T03:56:37.673Z,0.10
2022-11-05T03:59:06.936Z,0.73
2022-11-05T04:01:36.246Z,0.10
2022-11-05T04:04:04.858Z,0.10
2022-11-05T04:06:50.273Z,0.10
2022-11-05T04:09:35.728Z,0.10
2022-11-05T04:12:21.070Z,0.10
2022-11-05T04:14:48.201Z,0.10
2022-11-05T04:17:15.049Z,0.10
2022-11-05T04:20:02.642Z,0.10
2022-11-05T04:22:51.187Z,0.10
2022-11-05T04:25:19.574Z,0.10
2022-11-05T04:27:48.121Z,0.10
2022-11-05T04:30:20.391Z,0.10
2022-11-05T04:33:02.230Z,0.20
2022-11-05T04:35:49.617Z,0.10
2022-11-05T04:38:20.230Z,0.30
2022-11-05T04:40:48.201Z,0.20
2022-11-05T04:43:18.490Z,0.10
2022-11-05T04:45:45.912Z,0.10
2022-11-05T04:48:13.183Z,0.10
2022-11-05T04:50:40.046Z,0.23
2022-11-05T04:53:06.884Z,0.10
2022-11-05T04:55:33.763Z,0.10
2022-11-05T04:58:00.600Z,0.20
2022-11-05T05:00:27.601Z,0.10
2022-11-05T05:02:54.666Z,0.10
2022-11-05T05:05:22.865Z,0.10
2022-11-05T05:10:16.832Z,0.10
2022-11-05T05:12:43.797Z,0.10
2022-11-05T05:15:10.650Z,0.08
2022-11-05T05:17:37.567Z,0.10
2022-11-05T05:20:23.725Z,0.10
2022-11-05T05:22:54.618Z,0.10
2022-11-05T05:25:22.145Z,0.10
2022-11-05T05:27:49.082Z,0.10
2022-11-05T05:30:15.986Z,0.10
2022-11-05T05:32:42.947Z,0.10
2022-11-05T05:35:10.118Z,0.13
2022-11-05T05:37:37.121Z,0.10
2022-11-05T05:40:04.504Z,0.10
2022-11-05T05:42:31.469Z,0.10
2022-11-05T05:44:58.298Z,0.10
2022-11-05T05:47:25.077Z,0.10
2022-11-05T05:49:52.020Z,0.10
2022-11-05T05:52:18.868Z,0.10
2022-11-05T05:54:45.671Z,0.10
2022-11-05T05:57:12.593Z,0.10
2022-11-05T05:59:39.533Z,0.10
2022-11-05T06:02:06.518Z,0.10
2022-11-05T06:04:33.504Z,0.10
2022-11-05T06:07:00.390Z,0.10
2022-11-05T06:09:27.209Z,0.10
2022-11-05T06:11:54.268Z,0.10
2022-11-05T06:14:21.177Z,0.10
2022-11-05T06:16:48.064Z,0.10
2022-11-05T06:19:14.963Z,0.10
2022-11-05T06:21:41.893Z,0.17
2022-11-05T06:24:09.105Z,0.43
2022-11-05T06:26:36.310Z,0.10
2022-11-05T06:29:03.236Z,0.10
2022-11-05T06:31:30.154Z,0.17
2022-11-05T06:33:57.079Z,0.22
2022-11-05T06:36:23.948Z,1.02
2022-11-05T06:38:50.730Z,0.10
2022-11-05T06:41:17.566Z,0.10
2022-11-05T06:43:44.549Z,0.20
2022-11-05T06:46:12.241Z,0.10
2022-11-05T06:48:40.508Z,0.10
2022-11-05T06:51:08.297Z,0.13
2022-11-05T06:53:35.770Z,0.15
2022-11-05T06:56:07.206Z,0.22
2022-11-05T06:58:34.536Z,0.22
2022-11-05T07:01:09.535Z,0.10
2022-11-05T07:03:37.417Z,0.17
2022-11-05T07:06:06.062Z,0.43
2022-11-05T07:08:34.442Z,0.20
2022-11-05T07:11:01.371Z,0.17
2022-11-05T07:13:28.366Z,0.30
2022-11-05T07:15:55.985Z,0.20
2022-11-05T07:18:23.530Z,0.57
2022-11-05T07:20:50.373Z,0.85
2022-11-05T07:23:17.408Z,0.50
2022-11-05T07:25:44.356Z,0.10
2022-11-05T07:28:11.456Z,0.47
2022-11-05T07:30:38.726Z,0.38
2022-11-05T07:33:05.654Z,0.10
2022-11-05T07:35:32.560Z,0.10
2022-11-05T07:37:59.642Z,0.40
2022-11-05T07:40:28.084Z,0.10
2022-11-05T07:42:57.341Z,0.20
2022-11-05T07:45:25.619Z,0.20
2022-11-05T07:50:25.866Z,0.20
2022-11-05T07:52:53.168Z,0.30
2022-11-05T07:55:20.965Z,0.20
2022-11-05T07:57:50.625Z,0.20
2022-11-05T08:00:22.880Z,0.20
2022-11-05T08:03:07.702Z,0.10
2022-11-05T08:05:37.812Z,0.10
2022-11-05T08:08:06.242Z,0.20
2022-11-05T08:10:34.241Z,0.50
2022-11-05T08:15:28.316Z,0.10
2022-11-05T08:18:03.459Z,0.22
2022-11-05T08:20:31.357Z,0.10
2022-11-05T08:22:58.437Z,0.10
2022-11-05T08:25:25.823Z,0.20
2022-11-05T08:27:57.057Z,0.10
2022-11-05T08:30:24.323Z,0.40
2022-11-05T08:32:51.240Z,0.10
2022-11-05T08:35:18.221Z,0.10
2022-11-05T08:37:45.269Z,0.17
2022-11-05T08:40:12.495Z,0.20
2022-11-05T08:42:39.547Z,0.20
2022-11-05T08:45:06.908Z,0.50
2022-11-05T08:47:33.759Z,0.20
2022-11-05T08:50:00.633Z,0.13
2022-11-05T08:52:27.685Z,0.32
2022-11-05T08:54:54.488Z,0.30
2022-11-05T08:57:21.305Z,0.30
2022-11-05T08:59:48.203Z,0.20
2022-11-05T09:02:15.276Z,0.10
2022-11-05T09:04:42.185Z,0.10
2022-11-05T09:07:09.565Z,0.20
2022-11-05T09:09:36.612Z,0.10
2022-11-05T09:12:12.214Z,0.20
2022-11-05T09:14:39.792Z,0.10
2022-11-05T09:17:22.871Z,0.10
2022-11-05T09:19:49.911Z,0.82
2022-11-05T09:22:16.893Z,0.10
2022-11-05T09:24:43.945Z,0.88
2022-11-05T09:27:13.236Z,0.15
2022-11-05T09:29:40.663Z,0.10
2022-11-05T09:32:08.463Z,0.10
2022-11-05T09:34:35.866Z,0.30
2022-11-05T09:37:02.791Z,0.10
2022-11-05T09:39:29.928Z,0.47
2022-11-05T09:42:02.659Z,0.10
2022-11-05T09:44:47.632Z,0.10
2022-11-05T09:47:22.799Z,0.20
2022-11-05T09:49:54.083Z,0.10
2022-11-05T09:52:27.883Z,0.20
2022-11-05T09:54:56.545Z,0.10
2022-11-05T09:57:30.899Z,0.10
2022-11-05T10:00:02.001Z,0.10
2022-11-05T10:02:47.481Z,0.10
2022-11-05T10:05:15.746Z,0.10
2022-11-05T10:07:48.232Z,0.10
2022-11-05T10:10:55.022Z,0.10
2022-11-05T10:13:40.057Z,0.10
2022-11-05T10:16:26.024Z,0.28
2022-11-05T10:18:58.837Z,0.20
2022-11-05T10:21:51.379Z,0.10
2022-11-05T10:24:18.985Z,0.13
2022-11-05T10:26:52.689Z,0.17
2022-11-05T10:29:34.344Z,0.10
2022-11-05T10:32:05.654Z,0.10
2022-11-05T10:34:35.226Z,0.43
2022-11-05T10:37:02.549Z,0.13
2022-11-05T10:39:31.318Z,0.20
2022-11-05T10:42:12.494Z,0.10
2022-11-05T10:44:48.593Z,0.10
2022-11-05T10:47:34.737Z,0.10
2022-11-05T10:50:05.002Z,0.30
2022-11-05T10:52:42.440Z,0.20
2022-11-05T10:55:29.118Z,0.20
2022-11-05T10:58:15.887Z,0.10
2022-11-05T11:00:45.311Z,0.10
2022-11-05T11:03:40.081Z,0.17
2022-11-05T11:06:19.919Z,0.10
2022-11-05T11:08:48.655Z,0.25
2022-11-05T11:11:32.144Z,0.35
2022-11-05T11:14:02.273Z,0.10
2022-11-05T11:16:57.311Z,0.10
2022-11-05T11:19:25.790Z,0.28
2022-11-05T11:22:04.927Z,0.20
2022-11-05T11:24:38.933Z,0.20
2022-11-05T11:27:10.250Z,0.30
2022-11-05T11:29:42.913Z,0.20
2022-11-05T11:32:15.496Z,0.35
2022-11-05T11:34:44.882Z,0.20
2022-11-05T11:37:42.255Z,0.30
2022-11-05T11:40:20.471Z,0.55
2022-11-05T11:42:53.791Z,0.40
2022-11-05T11:45:45.302Z,0.10
2022-11-05T11:48:18.818Z,0.20
2022-11-05T11:50:47.881Z,0.20
2022-11-05T11:53:24.493Z,0.10
2022-11-05T11:55:59.179Z,0.17
2022-11-05T11:58:46.235Z,0.10
2022-11-05T12:01:41.306Z,0.10
2022-11-05T12:04:23.333Z,0.13
2022-11-05T12:06:50.167Z,0.17
2022-11-05T12:09:41.693Z,0.20
2022-11-05T12:12:14.139Z,0.13
2022-11-05T12:14:57.407Z,0.22
2022-11-05T12:17:30.063Z,0.40
2022-11-05T12:20:20.229Z,0.20
2022-11-05T12:23:05.830Z,0.20
2022-11-05T12:26:01.405Z,0.20
2022-11-05T12:28:57.843Z,0.10
2022-11-05T12:31:43.448Z,0.10
2022-11-05T12:34:34.576Z,0.13
2022-11-05T12:37:37.478Z,0.10
2022-11-05T12:40:13.189Z,0.32
2022-11-05T12:43:18.250Z,0.15
2022-11-05T12:45:45.465Z,0.20
2022-11-05T12:48:42.682Z,0.20
2022-11-05T12:51:25.661Z,0.20
2022-11-05T12:54:01.452Z,0.10
2022-11-05T12:56:39.477Z,0.10
2022-11-05T12:59:22.280Z,0.60
2022-11-05T13:02:00.395Z,0.32
2022-11-05T13:04:37.705Z,0.10
2022-11-05T13:07:08.785Z,0.10
2022-11-05T13:09:50.715Z,0.20
2022-11-05T13:12:22.257Z,0.10
2022-11-05T13:14:56.290Z,0.20
2022-11-05T13:17:25.289Z,0.20
2022-11-05T13:20:17.166Z,0.10
2022-11-05T13:23:01.151Z,0.10
2022-11-05T13:25:35.656Z,0.20
2022-11-05T13:28:23.792Z,0.10
2022-11-05T13:30:54.527Z,0.20
2022-11-05T13:33:29.065Z,0.10
2022-11-05T13:36:21.393Z,0.35
2022-11-05T13:39:07.103Z,0.15
2022-11-05T13:41:56.363Z,0.20
2022-11-05T13:44:32.471Z,0.38
2022-11-05T13:47:27.869Z,0.30
2022-11-05T13:50:16.822Z,0.30
2022-11-05T13:52:49.750Z,0.10
2022-11-05T13:55:42.484Z,0.10
2022-11-05T13:58:12.919Z,0.10
2022-11-05T14:00:58.082Z,0.20
2022-11-05T14:03:25.755Z,0.10
2022-11-05T14:06:14.341Z,0.10
2022-11-05T14:08:45.340Z,0.20
2022-11-05T14:11:24.079Z,0.10
2022-11-05T14:13:56.441Z,0.10
2022-11-05T14:16:25.836Z,0.10
2022-11-05T14:19:14.435Z,0.20
2022-11-05T14:21:53.988Z,0.20
2022-11-05T14:24:26.803Z,0.20
2022-11-05T14:27:02.539Z,0.20
2022-11-05T14:29:46.956Z,0.20
2022-11-05T14:32:19.789Z,0.10
2022-11-05T14:35:17.967Z,0.10
2022-11-05T14:37:56.333Z,0.40
2022-11-05T14:40:39.678Z,0.20
2022-11-05T14:43:21.638Z,0.10
2022-11-05T14:46:00.903Z,0.10
2022-11-05T14:48:40.507Z,0.20
2022-11-05T14:51:28.919Z,0.20
2022-11-05T14:54:21.070Z,0.30
2022-11-05T14:56:56.487Z,0.35
2022-11-05T14:59:31.702Z,0.10
2022-11-05T15:02:02.020Z,0.25
2022-11-05T15:04:37.722Z,0.10
2022-11-05T15:07:04.687Z,0.10
2022-11-05T15:09:42.849Z,0.20
2022-11-05T15:12:18.663Z,0.13
2022-11-05T15:15:00.111Z,0.10
2022-11-05T15:17:40.284Z,0.38
2022-11-05T15:20:07.416Z,0.22
2022-11-05T15:22:39.697Z,0.38
2022-11-05T15:25:16.853Z,0.10
2022-11-05T15:27:52.377Z,0.33
2022-11-05T15:30:21.960Z,0.28
2022-11-05T15:32:48.902Z,0.40
2022-11-05T15:35:42.556Z,0.35
2022-11-05T15:38:34.068Z,0.10
2022-11-05T15:41:06.728Z,0.75
2022-11-05T15:43:33.904Z,0.30
2022-11-05T15:46:02.310Z,0.45
2022-11-05T15:48:29.609Z,0.20
2022-11-05T15:50:56.887Z,0.27
2022-11-05T15:53:56.067Z,0.90
2022-11-05T15:56:40.770Z,0.20
2022-11-05T15:59:20.323Z,0.38
2022-11-05T16:02:25.599Z,2.50
2022-11-05T16:04:53.007Z,3.40
2022-11-05T16:07:20.010Z,2.90
2022-11-05T16:10:02.879Z,1.23
2022-11-05T16:12:33.047Z,1.55
2022-11-05T16:15:07.773Z,0.28
2022-11-05T16:17:50.218Z,0.20
2022-11-05T16:20:28.231Z,0.22
2022-11-05T16:25:31.903Z,0.40
2022-11-05T16:28:00.274Z,0.57
2022-11-05T16:30:27.548Z,0.32
2022-11-05T16:32:55.221Z,0.40
2022-11-05T16:35:24.369Z,0.65
2022-11-05T16:37:52.763Z,0.70
2022-11-05T16:40:23.695Z,0.50
2022-11-05T16:42:52.797Z,0.63
2022-11-05T16:45:22.730Z,0.60
2022-11-05T16:47:50.279Z,0.95
2022-11-05T16:50:29.914Z,0.55
2022-11-05T16:52:56.869Z,0.40
2022-11-05T16:55:23.721Z,0.22
2022-11-05T16:57:54.198Z,0.70
2022-11-05T17:00:22.462Z,0.52
2022-11-05T17:02:49.749Z,0.35
2022-11-05T17:05:18.518Z,0.47
2022-11-05T17:07:45.631Z,0.60
2022-11-05T17:10:12.584Z,1.05
2022-11-05T17:12:39.571Z,0.80
2022-11-05T17:15:17.656Z,0.40
2022-11-05T17:17:44.908Z,0.35
2022-11-05T17:20:41.498Z,0.70
2022-11-05T17:23:15.222Z,1.40
2022-11-05T17:25:45.644Z,0.65
2022-11-05T17:28:13.534Z,1.27
2022-11-05T17:33:11.107Z,0.28
2022-11-05T17:35:40.427Z,0.10
2022-11-05T17:38:07.879Z,0.32
2022-11-05T17:40:35.889Z,0.82
2022-11-05T17:43:02.837Z,0.60
2022-11-05T17:45:30.088Z,1.65
2022-11-05T17:47:57.058Z,1.77
2022-11-05T17:50:24.118Z,1.23
2022-11-05T17:52:51.154Z,0.43
2022-11-05T17:55:18.079Z,0.50
2022-11-05T17:57:47.516Z,0.57
2022-11-05T18:00:17.541Z,1.63
2022-11-05T18:02:45.997Z,0.47
2022-11-05T18:05:13.615Z,0.63
2022-11-05T18:07:40.944Z,0.32
2022-11-05T18:10:08.686Z,1.00
2022-11-05T18:12:36.213Z,1.40
2022-11-05T18:15:03.669Z,3.00
2022-11-05T18:17:30.806Z,2.63
2022-11-05T18:19:57.695Z,0.67
2022-11-05T18:22:26.764Z,0.90
2022-11-05T18:24:54.907Z,0.55
2022-11-05T18:27:24.631Z,0.93
2022-11-05T18:29:51.589Z,0.65
2022-11-05T18:32:18.446Z,1.13
2022-11-05T18:34:45.459Z,0.35
2022-11-05T18:37:12.643Z,0.93
2022-11-05T18:39:39.583Z,1.33
2022-11-05T18:42:06.527Z,0.68
2022-11-05T18:44:38.732Z,0.82
2022-11-05T18:47:06.867Z,0.50
2022-11-05T18:49:34.054Z,1.90
2022-11-05T18:52:01.001Z,1.80
2022-11-05T18:54:28.044Z,3.03
2022-11-05T18:56:55.036Z,2.28
2022-11-05T18:59:36.875Z,1.25
2022-11-05T19:02:06.239Z,0.68
2022-11-05T19:04:35.577Z,1.55
2022-11-05T19:07:05.101Z,1.42
2022-11-05T19:09:36.478Z,1.60
2022-11-05T19:12:04.528Z,0.82
2022-11-05T19:14:31.476Z,2.00
2022-11-05T19:16:59.460Z,1.30
2022-11-05T19:21:53.656Z,0.43
2022-11-05T19:24:21.028Z,1.45
2022-11-05T19:26:48.588Z,0.85
2022-11-05T19:29:15.472Z,2.40
2022-11-05T19:31:42.401Z,1.85
2022-11-05T19:34:09.383Z,2.22
2022-11-05T19:36:36.218Z,1.23
2022-11-05T19:39:11.035Z,0.73
2022-11-05T19:41:37.876Z,1.75
2022-11-05T19:44:04.829Z,1.00
2022-11-05T19:46:32.497Z,1.10
2022-11-05T19:49:03.236Z,1.98
2022-11-05T19:51:32.703Z,1.65
2022-11-05T19:54:01.414Z,1.92
2022-11-05T19:56:34.778Z,0.98
2022-11-05T19:59:03.426Z,3.15
2022-11-05T20:01:30.946Z,1.60
2022-11-05T20:03:59.119Z,1.75
2022-11-05T20:11:48.763Z,2.10
2022-11-05T20:14:15.800Z,3.67
2022-11-05T20:16:42.959Z,4.18
2022-11-05T20:19:13.091Z,2.30
2022-11-05T20:21:40.179Z,2.65
2022-11-05T20:24:08.025Z,2.50
2022-11-05T20:26:35.543Z,2.25
2022-11-05T20:29:03.000Z,1.83
2022-11-05T20:31:30.292Z,2.00
2022-11-05T20:33:57.246Z,1.85
2022-11-05T20:36:25.910Z,2.25
2022-11-05T20:38:56.404Z,3.55
2022-11-05T20:41:23.723Z,3.60
2022-11-05T20:43:51.499Z,2.22
2022-11-05T20:46:20.491Z,1.40
2022-11-05T20:48:47.589Z,3.40
2022-11-05T20:51:19.408Z,4.13
2022-11-05T20:53:46.914Z,2.00
2022-11-05T20:56:19.346Z,1.75
2022-11-05T20:58:47.268Z,3.53
2022-11-05T21:01:18.638Z,3.08
2022-11-05T21:03:46.841Z,3.40
2022-11-05T21:06:14.642Z,2.13
2022-11-05T21:08:41.746Z,2.05
2022-11-05T21:11:09.224Z,2.90
2022-11-05T21:13:36.608Z,2.90
2022-11-05T21:16:06.708Z,3.55
2022-11-05T21:18:37.849Z,0.90
2022-11-05T21:21:13.399Z,2.55
2022-11-05T21:23:41.798Z,1.45
2022-11-05T21:26:12.069Z,2.15
2022-11-05T21:28:40.888Z,1.67
2022-11-05T21:31:08.815Z,4.85
2022-11-05T21:33:36.054Z,3.17
2022-11-05T21:36:11.944Z,1.10
2022-11-05T21:38:39.808Z,1.77
2022-11-05T21:41:08.371Z,1.42
2022-11-05T21:43:35.603Z,1.80
2022-11-05T21:46:04.087Z,1.73
2022-11-05T21:48:31.588Z,1.55
2022-11-05T21:51:17.025Z,1.80
2022-11-05T21:54:02.511Z,3.33
2022-11-05T21:56:47.893Z,2.78
2022-11-05T21:59:36.448Z,2.00
2022-11-05T22:02:03.920Z,2.95
2022-11-05T22:04:33.084Z,2.03
2022-11-05T22:07:00.432Z,1.65
2022-11-05T22:09:27.594Z,1.48
2022-11-05T22:11:55.104Z,0.20
2022-11-05T22:14:22.241Z,0.20
2022-11-05T22:16:49.203Z,0.83
2022-11-05T22:19:16.167Z,0.52
2022-11-05T22:21:43.164Z,0.73
2022-11-05T22:24:10.315Z,0.35
2022-11-05T22:26:38.189Z,0.30
2022-11-05T22:29:06.315Z,0.60
2022-11-05T22:34:04.573Z,0.20
2022-11-05T22:36:32.751Z,0.20
2022-11-05T22:41:26.539Z,0.20
2022-11-05T22:43:53.592Z,0.30
2022-11-05T22:46:23.466Z,0.65
2022-11-05T22:48:50.668Z,2.00
2022-11-05T22:51:24.449Z,0.95
2022-11-05T22:53:51.671Z,1.38
2022-11-05T22:56:21.797Z,1.43
2022-11-05T22:58:49.055Z,0.85
2022-11-05T23:01:16.708Z,1.05
2022-11-05T23:03:45.265Z,0.98
2022-11-05T23:06:39.769Z,1.10
2022-11-05T23:09:41.352Z,0.95
2022-11-05T23:12:22.249Z,0.73
2022-11-05T23:14:49.194Z,1.20
2022-11-05T23:17:34.417Z,2.35
2022-11-05T23:20:19.688Z,1.10
2022-11-05T23:23:05.107Z,0.93
2022-11-05T23:25:32.001Z,0.85
2022-11-05T23:27:58.902Z,2.42
2022-11-05T23:30:27.256Z,4.22
2022-11-05T23:32:55.691Z,2.85
2022-11-05T23:35:42.762Z,3.60
2022-11-05T23:38:28.459Z,1.45
2022-11-05T23:41:21.667Z,4.00
2022-11-05T23:44:07.505Z,2.20
2022-11-05T23:46:53.133Z,2.28
2022-11-05T23:49:20.375Z,2.83
2022-11-05T23:51:47.275Z,1.80
2022-11-05T23:54:14.150Z,3.70
2022-11-05T23:56:41.028Z,1.27
2022-11-05T23:59:07.881Z,1.33
